createdAt,value
2019-05-02T00:02:28.883Z,60.30
2019-05-02T00:04:57.494Z,60.20
2019-05-02T00:07:26.165Z,60.00
2019-05-02T00:09:54.897Z,60.10
2019-05-02T00:12:24.137Z,60.00
2019-05-02T00:14:56.610Z,59.80
2019-05-02T00:17:25.654Z,59.80
2019-05-02T00:19:54.341Z,59.90
2019-05-02T00:22:23.025Z,60.10
2019-05-02T00:24:51.731Z,60.10
2019-05-02T00:27:20.480Z,59.90
2019-05-02T00:29:49.153Z,59.70
2019-05-02T00:32:18.448Z,59.80
2019-05-02T00:34:48.177Z,60.30
2019-05-02T00:37:18.997Z,60.50
2019-05-02T00:39:49.200Z,60.60
2019-05-02T00:42:21.993Z,60.70
2019-05-02T00:44:48.314Z,60.70
2019-05-02T00:47:18.773Z,60.80
2019-05-02T00:49:48.028Z,60.60
2019-05-02T00:52:16.725Z,60.80
2019-05-02T00:54:45.457Z,61.00
2019-05-02T00:57:14.870Z,61.20
2019-05-02T00:59:44.473Z,61.20
2019-05-02T01:02:17.944Z,61.00
2019-05-02T01:04:48.500Z,60.90
2019-05-02T01:07:20.330Z,61.10
2019-05-02T01:09:48.063Z,61.60
2019-05-02T01:12:26.106Z,61.90
2019-05-02T01:14:47.228Z,61.90
2019-05-02T01:17:15.946Z,62.30
2019-05-02T01:19:47.171Z,62.20
2019-05-02T01:22:15.933Z,62.30
2019-05-02T01:24:45.869Z,62.10
2019-05-02T01:27:25.217Z,62.20
2019-05-02T01:30:06.056Z,62.30
2019-05-02T01:32:39.287Z,62.10
2019-05-02T01:35:26.919Z,62.10
2019-05-02T01:38:12.825Z,62.20
2019-05-02T01:40:41.613Z,62.30
2019-05-02T01:43:25.784Z,62.30
2019-05-02T01:45:54.450Z,62.40
2019-05-02T01:48:23.136Z,62.70
2019-05-02T01:50:51.813Z,62.80
2019-05-02T01:53:20.521Z,63.10
2019-05-02T01:55:52.074Z,63.00
2019-05-02T01:58:20.812Z,63.10
2019-05-02T02:00:49.909Z,63.10
2019-05-02T02:03:18.593Z,62.80
2019-05-02T02:05:47.273Z,62.50
2019-05-02T02:08:15.979Z,63.10
2019-05-02T02:10:44.670Z,61.90
2019-05-02T02:13:13.354Z,62.10
2019-05-02T02:15:42.090Z,62.30
2019-05-02T02:18:11.441Z,62.90
2019-05-02T02:20:45.167Z,62.80
2019-05-02T02:23:19.683Z,63.90
2019-05-02T02:25:50.013Z,62.80
2019-05-02T02:28:18.694Z,62.60
2019-05-02T02:30:47.956Z,62.60
2019-05-02T02:33:16.645Z,62.90
2019-05-02T02:35:50.648Z,62.80
2019-05-02T02:38:15.685Z,62.80
2019-05-02T02:40:44.369Z,62.90
2019-05-02T02:43:32.424Z,63.20
2019-05-02T02:46:00.428Z,63.50
2019-05-02T02:48:33.532Z,63.60
2019-05-02T02:50:59.852Z,63.40
2019-05-02T02:53:31.563Z,63.70
2019-05-02T02:56:07.651Z,63.10
2019-05-02T02:58:45.687Z,63.00
2019-05-02T03:01:07.052Z,63.10
2019-05-02T03:03:35.948Z,63.10
2019-05-02T03:06:06.321Z,63.20
2019-05-02T03:08:45.154Z,63.30
2019-05-02T03:11:05.433Z,63.40
2019-05-02T03:13:52.564Z,63.30
2019-05-02T03:16:16.964Z,63.20
2019-05-02T03:18:45.645Z,63.40
2019-05-02T03:21:20.840Z,63.50
2019-05-02T03:23:44.756Z,63.70
2019-05-02T03:26:17.103Z,63.70
2019-05-02T03:28:45.355Z,63.70
2019-05-02T03:31:24.132Z,63.70
2019-05-02T03:33:54.723Z,63.70
2019-05-02T03:36:28.889Z,63.10
2019-05-02T03:38:45.072Z,62.80
2019-05-02T03:41:20.606Z,62.80
2019-05-02T03:43:44.121Z,62.60
2019-05-02T03:46:13.536Z,63.20
2019-05-02T03:48:43.132Z,63.00
2019-05-02T03:51:19.540Z,63.10
2019-05-02T03:53:42.180Z,63.10
2019-05-02T03:56:13.682Z,63.40
2019-05-02T03:58:41.210Z,63.70
2019-05-02T04:01:09.894Z,63.80
2019-05-02T04:03:41.019Z,63.70
2019-05-02T04:06:13.830Z,63.50
2019-05-02T04:08:39.291Z,63.50
2019-05-02T04:11:17.400Z,64.10
2019-05-02T04:13:46.095Z,64.20
2019-05-02T04:16:17.600Z,64.30
2019-05-02T04:18:54.646Z,64.30
2019-05-02T04:21:22.168Z,64.60
2019-05-02T04:23:47.156Z,64.70
2019-05-02T04:26:15.876Z,64.70
2019-05-02T04:28:51.580Z,64.50
2019-05-02T04:31:16.363Z,64.50
2019-05-02T04:33:45.080Z,64.50
2019-05-02T04:36:17.432Z,64.30
2019-05-02T04:38:47.928Z,65.80
2019-05-02T04:41:21.645Z,66.90
2019-05-02T04:43:54.535Z,63.50
2019-05-02T04:46:22.272Z,59.40
2019-05-02T04:48:52.021Z,55.80
2019-05-02T04:51:19.986Z,53.70
2019-05-02T04:53:49.516Z,52.70
2019-05-02T04:56:18.478Z,52.20
2019-05-02T04:58:49.005Z,51.00
2019-05-02T05:01:16.570Z,49.90
2019-05-02T05:03:49.150Z,49.40
2019-05-02T05:06:15.076Z,48.50
2019-05-02T05:08:43.509Z,47.30
2019-05-02T05:11:13.920Z,45.80
2019-05-02T05:13:42.013Z,43.70
2019-05-02T05:16:15.304Z,43.00
2019-05-02T05:18:43.962Z,41.70
2019-05-02T05:21:10.742Z,40.10
2019-05-02T05:23:59.506Z,39.00
2019-05-02T05:26:24.608Z,37.90
2019-05-02T05:28:53.012Z,37.50
2019-05-02T05:31:24.113Z,37.80
2019-05-02T05:33:51.533Z,40.00
2019-05-02T05:36:24.765Z,41.50
2019-05-02T05:38:50.043Z,41.80
2019-05-02T05:41:22.996Z,42.00
2019-05-02T05:43:49.996Z,42.10
2019-05-02T05:46:18.635Z,42.70
2019-05-02T05:48:47.688Z,43.30
2019-05-02T05:51:20.413Z,44.00
2019-05-02T05:53:47.895Z,44.40
2019-05-02T05:56:18.038Z,44.80
2019-05-02T05:58:50.488Z,45.60
2019-05-02T06:01:20.105Z,45.40
2019-05-02T06:03:47.421Z,45.50
2019-05-02T06:06:22.398Z,46.00
2019-05-02T06:08:49.193Z,46.60
2019-05-02T06:11:20.079Z,46.80
2019-05-02T06:13:48.711Z,47.20
2019-05-02T06:16:16.705Z,47.60
2019-05-02T06:18:45.218Z,47.50
2019-05-02T06:21:13.639Z,48.20
2019-05-02T06:23:42.166Z,48.20
2019-05-02T06:26:13.587Z,48.10
2019-05-02T06:28:41.515Z,48.10
2019-05-02T06:31:11.866Z,48.30
2019-05-02T06:33:40.961Z,48.40
2019-05-02T06:36:09.388Z,48.60
2019-05-02T06:38:37.850Z,48.70
2019-05-02T06:41:06.262Z,48.90
2019-05-02T06:43:34.677Z,49.20
2019-05-02T06:46:15.412Z,49.30
2019-05-02T06:48:33.288Z,49.30
2019-05-02T06:51:01.707Z,49.60
2019-05-02T06:53:30.162Z,49.50
2019-05-02T06:55:58.587Z,49.60
2019-05-02T06:58:27.002Z,49.90
2019-05-02T07:00:58.329Z,50.00
2019-05-02T07:03:27.572Z,50.10
2019-05-02T07:05:58.872Z,50.20
2019-05-02T07:08:25.870Z,50.30
2019-05-02T07:10:56.054Z,50.10
2019-05-02T07:13:24.335Z,50.30
2019-05-02T07:15:54.719Z,50.20
2019-05-02T07:18:33.602Z,50.10
2019-05-02T07:21:02.927Z,50.20
2019-05-02T07:23:31.458Z,50.60
2019-05-02T07:26:00.520Z,50.70
2019-05-02T07:28:29.122Z,50.30
2019-05-02T07:30:57.902Z,50.50
2019-05-02T07:33:26.319Z,50.20
2019-05-02T07:35:55.274Z,49.80
2019-05-02T07:38:25.849Z,49.60
2019-05-02T07:40:56.170Z,50.00
2019-05-02T07:43:24.648Z,50.00
2019-05-02T07:45:53.075Z,49.40
2019-05-02T07:48:21.498Z,49.80
2019-05-02T07:50:50.322Z,49.70
2019-05-02T07:53:18.962Z,49.50
2019-05-02T07:55:49.174Z,49.40
2019-05-02T07:58:17.480Z,49.40
2019-05-02T08:00:45.946Z,49.30
2019-05-02T08:03:14.363Z,49.90
2019-05-02T08:05:43.066Z,49.60
2019-05-02T08:08:11.503Z,49.50
2019-05-02T08:10:39.911Z,49.40
2019-05-02T08:13:11.989Z,49.40
2019-05-02T08:15:38.426Z,48.80
2019-05-02T08:18:06.851Z,47.70
2019-05-02T08:20:35.307Z,48.30
2019-05-02T08:23:03.715Z,48.00
2019-05-02T08:25:32.146Z,46.80
2019-05-02T08:28:10.109Z,47.90
2019-05-02T08:30:40.530Z,48.20
2019-05-02T08:33:09.413Z,47.70
2019-05-02T08:35:37.849Z,47.30
2019-05-02T08:38:06.274Z,46.80
2019-05-02T08:40:34.703Z,47.30
2019-05-02T08:43:08.631Z,47.10
2019-05-02T08:45:38.077Z,46.80
2019-05-02T08:48:05.109Z,46.20
2019-05-02T08:50:33.550Z,46.10
2019-05-02T08:53:01.911Z,46.20
2019-05-02T08:55:30.343Z,46.30
2019-05-02T08:57:58.818Z,46.20
2019-05-02T09:00:27.259Z,46.20
2019-05-02T09:02:57.125Z,45.70
2019-05-02T09:05:26.149Z,45.90
2019-05-02T09:07:54.716Z,44.90
2019-05-02T09:10:23.137Z,45.00
2019-05-02T09:12:52.090Z,44.60
2019-05-02T09:15:22.316Z,44.50
2019-05-02T09:17:56.330Z,45.20
2019-05-02T09:20:23.568Z,45.00
2019-05-02T09:22:52.230Z,44.20
2019-05-02T09:25:21.983Z,42.90
2019-05-02T09:27:52.475Z,41.90
2019-05-02T09:30:22.709Z,43.00
2019-05-02T09:32:52.171Z,43.00
2019-05-02T09:35:22.926Z,43.50
2019-05-02T09:37:52.303Z,42.50
2019-05-02T09:40:22.253Z,41.70
2019-05-02T09:42:53.564Z,42.10
2019-05-02T09:45:35.747Z,41.90
2019-05-02T09:48:06.860Z,41.90
2019-05-02T09:50:31.334Z,41.70
2019-05-02T09:52:58.943Z,41.70
2019-05-02T09:55:27.386Z,40.70
2019-05-02T09:57:55.798Z,40.60
2019-05-02T10:00:37.063Z,40.60
2019-05-02T10:03:05.608Z,39.30
2019-05-02T10:05:34.032Z,40.30
2019-05-02T10:08:06.726Z,39.80
2019-05-02T10:10:32.546Z,39.90
2019-05-02T10:13:02.735Z,39.60
2019-05-02T10:15:32.735Z,39.80
2019-05-02T10:18:08.651Z,37.00
2019-05-02T10:20:36.017Z,35.40
2019-05-02T10:23:02.284Z,36.70
2019-05-02T10:25:38.678Z,36.30
2019-05-02T10:28:02.167Z,37.40
2019-05-02T10:30:35.585Z,36.50
2019-05-02T10:33:02.675Z,33.90
2019-05-02T10:35:40.356Z,32.90
2019-05-02T10:38:09.370Z,33.20
2019-05-02T10:40:35.707Z,32.20
2019-05-02T10:43:04.111Z,34.20
2019-05-02T10:45:32.633Z,34.30
2019-05-02T10:48:02.304Z,35.00
2019-05-02T10:50:32.974Z,35.20
2019-05-02T10:53:05.390Z,35.50
2019-05-02T10:55:33.198Z,35.10
2019-05-02T10:58:02.058Z,35.10
2019-05-02T11:00:32.550Z,36.30
2019-05-02T11:03:02.694Z,37.00
2019-05-02T11:05:32.791Z,36.60
2019-05-02T11:08:04.613Z,36.30
2019-05-02T11:10:32.307Z,35.30
2019-05-02T11:13:02.508Z,36.30
2019-05-02T11:15:47.889Z,36.30
2019-05-02T11:18:17.775Z,36.50
2019-05-02T11:20:46.193Z,36.20
2019-05-02T11:23:14.619Z,36.20
2019-05-02T11:25:43.106Z,35.80
2019-05-02T11:28:12.448Z,35.20
2019-05-02T11:30:41.968Z,35.10
2019-05-02T11:33:13.161Z,35.50
2019-05-02T11:35:41.852Z,35.10
2019-05-02T11:38:13.709Z,35.30
2019-05-02T11:40:44.434Z,35.20
2019-05-02T11:43:14.503Z,34.50
2019-05-02T11:45:43.239Z,34.80
2019-05-02T11:48:13.865Z,34.80
2019-05-02T11:50:42.271Z,34.30
2019-05-02T11:53:24.790Z,29.90
2019-05-02T11:55:41.987Z,31.10
2019-05-02T11:58:12.544Z,33.00
2019-05-02T12:00:47.315Z,34.00
2019-05-02T12:03:15.702Z,34.10
2019-05-02T12:05:44.149Z,33.40
2019-05-02T12:08:12.598Z,35.00
2019-05-02T12:10:42.278Z,35.60
2019-05-02T12:13:15.589Z,34.50
2019-05-02T12:15:44.258Z,34.00
2019-05-02T12:18:12.966Z,31.80
2019-05-02T12:20:42.588Z,30.50
2019-05-02T12:23:12.989Z,31.00
2019-05-02T12:25:42.319Z,28.40
2019-05-02T12:28:12.022Z,29.20
2019-05-02T12:30:41.886Z,29.10
2019-05-02T12:33:12.278Z,27.70
2019-05-02T12:35:43.027Z,28.00
2019-05-02T12:38:12.196Z,28.40
2019-05-02T12:40:42.314Z,28.10
2019-05-02T12:43:12.036Z,29.00
2019-05-02T12:45:42.185Z,28.50
2019-05-02T12:48:12.729Z,29.50
2019-05-02T12:50:41.788Z,30.00
2019-05-02T12:53:12.413Z,29.90
2019-05-02T12:55:42.153Z,29.00
2019-05-02T12:58:12.521Z,29.70
2019-05-02T13:00:42.842Z,30.80
2019-05-02T13:03:12.659Z,29.70
2019-05-02T13:05:42.618Z,29.70
2019-05-02T13:08:12.305Z,30.00
2019-05-02T13:10:48.219Z,30.00
2019-05-02T13:13:16.726Z,30.00
2019-05-02T13:15:46.178Z,30.70
2019-05-02T13:18:18.669Z,30.50
2019-05-02T13:20:44.846Z,29.60
2019-05-02T13:23:27.406Z,30.10
2019-05-02T13:25:57.079Z,30.40
2019-05-02T13:28:25.734Z,30.60
2019-05-02T13:30:59.055Z,28.80
2019-05-02T13:33:38.304Z,30.40
2019-05-02T13:36:06.848Z,30.60
2019-05-02T13:38:35.271Z,30.00
2019-05-02T13:41:03.717Z,30.40
2019-05-02T13:43:33.776Z,30.70
2019-05-02T13:46:12.985Z,29.70
2019-05-02T13:48:42.884Z,30.00
2019-05-02T13:51:12.962Z,29.90
2019-05-02T13:53:43.054Z,28.20
2019-05-02T13:56:25.278Z,29.00
2019-05-02T13:58:53.747Z,29.00
2019-05-02T14:01:22.482Z,26.90
2019-05-02T14:03:53.656Z,26.70
2019-05-02T14:06:23.714Z,27.60
2019-05-02T14:08:55.478Z,28.40
2019-05-02T14:11:43.969Z,27.60
2019-05-02T14:14:12.385Z,26.30
2019-05-02T14:16:42.000Z,26.20
2019-05-02T14:19:12.462Z,27.00
2019-05-02T14:21:42.181Z,27.40
2019-05-02T14:24:11.816Z,28.10
2019-05-02T14:26:40.471Z,28.00
2019-05-02T14:29:12.580Z,27.90
2019-05-02T14:31:38.957Z,27.20
2019-05-02T14:34:27.078Z,27.10
2019-05-02T14:36:59.165Z,27.50
2019-05-02T14:39:25.645Z,27.50
2019-05-02T14:41:54.098Z,27.60
2019-05-02T14:44:27.036Z,27.70
2019-05-02T14:46:52.660Z,27.80
2019-05-02T14:49:23.985Z,27.70
2019-05-02T14:51:52.510Z,26.20
2019-05-02T14:54:22.924Z,26.60
2019-05-02T14:56:56.133Z,27.60
2019-05-02T14:59:24.554Z,28.20
2019-05-02T15:01:57.944Z,28.20
2019-05-02T15:04:25.402Z,27.00
2019-05-02T15:06:53.965Z,27.50
2019-05-02T15:09:26.550Z,27.80
2019-05-02T15:11:58.716Z,28.40
2019-05-02T15:14:32.906Z,28.10
2019-05-02T15:17:02.574Z,27.10
2019-05-02T15:19:32.950Z,27.00
2019-05-02T15:22:02.147Z,25.90
2019-05-02T15:24:33.463Z,26.90
2019-05-02T15:27:04.823Z,27.50
2019-05-02T15:29:32.147Z,28.10
2019-05-02T15:32:07.397Z,28.40
2019-05-02T15:34:47.829Z,28.50
2019-05-02T15:37:16.916Z,27.90
2019-05-02T15:42:17.764Z,26.00
2019-05-02T15:44:46.788Z,25.70
2019-05-02T15:47:15.234Z,26.00
2019-05-02T15:49:46.679Z,25.40
2019-05-02T15:52:18.901Z,25.90
2019-05-02T15:54:55.420Z,26.00
2019-05-02T15:57:22.064Z,26.10
2019-05-02T15:59:49.368Z,26.50
2019-05-02T16:02:22.905Z,26.50
2019-05-02T16:04:49.551Z,26.80
2019-05-02T16:07:18.267Z,26.60
2019-05-02T16:09:46.693Z,26.50
2019-05-02T16:12:15.126Z,26.80
2019-05-02T16:14:43.551Z,26.60
2019-05-02T16:17:12.566Z,27.00
2019-05-02T16:19:43.663Z,27.30
2019-05-02T16:22:17.082Z,27.40
2019-05-02T16:24:49.013Z,27.60
2019-05-02T16:27:16.629Z,27.80
2019-05-02T16:29:45.654Z,28.00
2019-05-02T16:32:15.759Z,28.00
2019-05-02T16:35:02.787Z,28.10
2019-05-02T16:37:32.501Z,28.40
2019-05-02T16:40:02.572Z,29.00
2019-05-02T16:42:32.792Z,28.80
2019-05-02T16:45:02.644Z,29.00
2019-05-02T16:47:32.584Z,29.00
2019-05-02T16:50:02.451Z,29.30
2019-05-02T16:52:32.702Z,29.40
2019-05-02T16:55:02.905Z,29.70
2019-05-02T16:57:32.739Z,29.90
2019-05-02T17:00:05.997Z,30.00
2019-05-02T17:02:32.448Z,30.20
2019-05-02T17:05:08.372Z,30.30
2019-05-02T17:07:44.958Z,30.20
2019-05-02T17:10:21.008Z,30.70
2019-05-02T17:12:55.453Z,30.90
2019-05-02T17:15:26.297Z,31.20
2019-05-02T17:17:54.493Z,31.60
2019-05-02T17:20:22.931Z,31.50
2019-05-02T17:22:57.203Z,31.90
2019-05-02T17:25:21.470Z,31.90
2019-05-02T17:27:55.456Z,32.10
2019-05-02T17:30:19.998Z,32.70
2019-05-02T17:32:48.414Z,33.00
2019-05-02T17:35:16.830Z,33.90
2019-05-02T17:37:48.628Z,34.10
2019-05-02T17:40:16.803Z,34.90
2019-05-02T17:42:45.471Z,35.50
2019-05-02T17:45:13.938Z,36.60
2019-05-02T17:47:42.342Z,36.50
2019-05-02T17:50:17.936Z,37.20
2019-05-02T17:52:44.150Z,37.20
2019-05-02T17:55:12.563Z,36.80
2019-05-02T17:57:42.011Z,36.70
2019-05-02T18:00:17.942Z,36.70
2019-05-02T18:02:46.943Z,36.80
2019-05-02T18:05:16.418Z,37.00
2019-05-02T18:07:44.890Z,37.40
2019-05-02T18:10:18.405Z,38.20
2019-05-02T18:12:47.723Z,38.60
2019-05-02T18:15:13.493Z,39.30
2019-05-02T18:17:42.734Z,39.90
2019-05-02T18:20:12.483Z,40.40
2019-05-02T18:22:47.183Z,40.00
2019-05-02T18:25:11.628Z,40.30
2019-05-02T18:27:42.015Z,40.50
2019-05-02T18:30:12.647Z,40.20
2019-05-02T18:32:42.012Z,40.20
2019-05-02T18:35:11.731Z,40.00
2019-05-02T18:37:45.071Z,39.90
2019-05-02T18:40:11.929Z,40.20
2019-05-02T18:42:42.306Z,40.50
2019-05-02T18:45:13.802Z,40.50
2019-05-02T18:47:42.347Z,40.40
2019-05-02T18:50:28.838Z,40.30
2019-05-02T18:52:57.265Z,40.50
2019-05-02T18:55:26.026Z,40.40
2019-05-02T18:57:56.971Z,40.60
2019-05-02T19:00:27.944Z,40.50
2019-05-02T19:02:56.629Z,40.50
2019-05-02T19:05:26.474Z,40.60
2019-05-02T19:07:56.395Z,40.60
2019-05-02T19:10:25.061Z,41.10
2019-05-02T19:12:56.183Z,41.00
2019-05-02T19:15:23.561Z,41.30
2019-05-02T19:17:52.898Z,41.30
2019-05-02T19:20:24.793Z,41.30
2019-05-02T19:22:56.794Z,41.20
2019-05-02T19:25:23.299Z,41.30
2019-05-02T19:27:57.548Z,41.90
2019-05-02T19:30:27.228Z,42.00
2019-05-02T19:32:57.884Z,42.20
2019-05-02T19:35:25.301Z,42.10
2019-05-02T19:37:55.135Z,41.90
2019-05-02T19:40:27.248Z,41.80
2019-05-02T19:42:57.255Z,41.60
2019-05-02T19:45:24.250Z,41.90
2019-05-02T19:47:54.290Z,42.00
2019-05-02T19:50:36.704Z,41.90
2019-05-02T19:53:04.348Z,41.90
2019-05-02T19:55:32.232Z,42.20
2019-05-02T19:58:02.348Z,42.10
2019-05-02T20:00:31.840Z,42.10
2019-05-02T20:03:01.826Z,42.30
2019-05-02T20:05:32.169Z,42.80
2019-05-02T20:08:02.396Z,43.20
2019-05-02T20:10:32.140Z,43.40
2019-05-02T20:13:02.923Z,43.50
2019-05-02T20:15:32.802Z,43.40
2019-05-02T20:18:04.747Z,43.40
2019-05-02T20:20:41.905Z,43.10
2019-05-02T20:23:16.203Z,43.10
2019-05-02T20:25:42.520Z,43.60
2019-05-02T20:28:10.501Z,43.90
2019-05-02T20:30:42.125Z,45.30
2019-05-02T20:33:12.729Z,47.30
2019-05-02T20:35:42.173Z,49.50
2019-05-02T20:38:11.766Z,50.60
2019-05-02T20:40:42.579Z,52.00
2019-05-02T20:43:12.137Z,54.20
2019-05-02T20:45:40.641Z,55.90
2019-05-02T20:48:09.060Z,58.10
2019-05-02T20:50:37.497Z,59.50
2019-05-02T20:53:05.924Z,60.60
2019-05-02T20:55:34.340Z,62.30
2019-05-02T20:58:02.816Z,60.70
2019-05-02T21:00:32.205Z,60.70
2019-05-02T21:03:02.495Z,62.20
2019-05-02T21:05:32.608Z,61.20
2019-05-02T21:08:19.135Z,61.30
2019-05-02T21:10:49.223Z,60.30
2019-05-02T21:13:17.641Z,60.00
2019-05-02T21:15:46.059Z,61.10
2019-05-02T21:18:14.508Z,61.10
2019-05-02T21:20:42.918Z,60.00
2019-05-02T21:23:11.319Z,59.80
2019-05-02T21:25:41.613Z,59.40
2019-05-02T21:28:11.949Z,59.70
2019-05-02T21:30:41.627Z,59.20
2019-05-02T21:33:32.024Z,58.90
2019-05-02T21:36:00.749Z,58.70
2019-05-02T21:38:48.621Z,59.10
2019-05-02T21:41:17.046Z,60.00
2019-05-02T21:43:45.465Z,59.60
2019-05-02T21:46:13.920Z,59.70
2019-05-02T21:48:42.328Z,61.60
2019-05-02T21:51:15.118Z,60.10
2019-05-02T21:54:03.387Z,59.70
2019-05-02T21:56:39.519Z,59.90
2019-05-02T21:59:12.112Z,59.50
2019-05-02T22:01:45.047Z,59.30
2019-05-02T22:04:13.463Z,59.10
2019-05-02T22:06:42.678Z,59.40
2019-05-02T22:09:12.281Z,59.50
2019-05-02T22:11:42.821Z,59.40
2019-05-02T22:14:13.008Z,59.30
2019-05-02T22:16:42.084Z,59.20
2019-05-02T22:19:10.686Z,59.30
2019-05-02T22:21:39.206Z,59.50
2019-05-02T22:24:11.479Z,59.60
2019-05-02T22:26:37.704Z,59.80
2019-05-02T22:29:06.151Z,59.80
2019-05-02T22:31:34.654Z,59.80
2019-05-02T22:34:03.076Z,59.90
2019-05-02T22:36:32.769Z,59.90
2019-05-02T22:39:03.087Z,60.00
2019-05-02T22:41:32.563Z,59.90
2019-05-02T22:44:01.896Z,60.20
2019-05-02T22:46:42.869Z,60.00
2019-05-02T22:49:14.535Z,60.30
2019-05-02T22:51:42.711Z,60.00
2019-05-02T22:54:23.276Z,60.10
2019-05-02T22:56:42.642Z,60.40
2019-05-02T22:59:11.198Z,60.30
2019-05-02T23:01:41.694Z,61.20
2019-05-02T23:04:09.787Z,60.80
2019-05-02T23:06:38.206Z,60.70
2019-05-02T23:09:07.374Z,61.00
2019-05-02T23:11:36.060Z,61.20
2019-05-02T23:14:05.006Z,61.10
2019-05-02T23:16:34.687Z,62.00
2019-05-02T23:19:03.168Z,61.20
2019-05-02T23:21:32.529Z,61.70
2019-05-02T23:24:02.942Z,62.50
2019-05-02T23:26:45.249Z,62.20
2019-05-02T23:29:15.303Z,62.70
2019-05-02T23:31:43.788Z,62.40
2019-05-02T23:34:12.228Z,62.50
2019-05-02T23:36:41.608Z,62.50
2019-05-02T23:39:12.287Z,62.50
2019-05-02T23:41:42.083Z,62.50
2019-05-02T23:44:12.279Z,62.20
2019-05-02T23:46:42.463Z,62.50
2019-05-02T23:49:12.745Z,62.80
2019-05-02T23:51:42.783Z,62.90
2019-05-02T23:54:12.829Z,62.90
2019-05-02T23:56:43.153Z,62.80
2019-05-02T23:59:11.857Z,63.00
